Time;durP1;ratioP1;P1;durP2;ratioP2;P2;SDS_P1;SDS_P2;PMS_P1;PMS_P2;Temp;Humidity;BMP_temperature;BMP_pressure;BME280_temperature;BME280_humidity;BME280_pressure;Samples;Min_cycle;Max_cycle;Signal;HPM_P1;HPM_P2
2022/11/05 00:10:42;;;;;;;;;;;;;;;8.74;94.04;101549.13;4980536;28;19936;-74
2022/11/05 00:18:36;;;;;;;;;;;;;;;8.69;94.19;101562.25;4979642;28;19998;-73
2022/11/05 00:21:02;;;;;;;;;;;;;;;8.66;93.98;101564.97;4980361;28;20121;-74
2022/11/05 00:26:11;;;;;;;;;;;;;;;8.62;93.91;101573.72;5000203;28;19925;-73
2022/11/05 00:28:37;;;;;;;;;;;;;;;8.61;94.00;101582.47;4994933;28;19914;-73
2022/11/05 00:31:08;;;;;;;;;;;;;;;8.59;93.91;101579.88;4985111;28;20198;-73
2022/11/05 00:33:34;;;;;;;;;;;;;;;8.58;94.01;101586.00;4993286;28;19909;-73
2022/11/05 00:36:01;;;;;;;;;;;;;;;8.56;93.93;101586.94;4980102;28;20082;-74
2022/11/05 00:38:26;;;;;;;;;;;;;;;8.55;93.80;101588.69;4965151;28;20237;-73
2022/11/05 00:40:51;;;;;;;;;;;;;;;8.53;94.03;101592.19;4998861;28;20114;-73
2022/11/05 00:46:00;;;;;;;;;;;;;;;8.50;94.02;101584.44;4999423;28;19927;-73
2022/11/05 00:51:09;;;;;;;;;;;;;;;8.47;93.91;101579.28;4960996;29;19921;-73
2022/11/05 00:53:35;;;;;;;;;;;;;;;8.45;94.11;101593.22;4961279;29;20018;-73
2022/11/05 00:56:00;;;;;;;;;;;;;;;8.42;94.14;101589.78;4979263;28;19966;-73
2022/11/05 00:58:27;;;;;;;;;;;;;;;8.41;94.16;101591.53;4980156;28;19924;-73
2022/11/05 01:00:54;;;;;;;;;;;;;;;8.40;94.19;101591.56;4995933;28;20119;-73
2022/11/05 01:03:20;;;;;;;;;;;;;;;8.40;94.30;101596.78;4999437;28;19931;-73
2022/11/05 01:05:47;;;;;;;;;;;;;;;8.39;94.31;101592.47;4984411;28;19954;-74
2022/11/05 01:08:13;;;;;;;;;;;;;;;8.38;94.22;101593.34;4979832;28;19994;-73
2022/11/05 01:10:40;;;;;;;;;;;;;;;8.37;94.40;101600.31;4990949;28;20124;-73
2022/11/05 01:13:05;;;;;;;;;;;;;;;8.36;94.20;101600.34;4999298;28;19910;-73
2022/11/05 01:15:30;;;;;;;;;;;;;;;8.33;94.24;101598.66;4971636;28;19925;-73
2022/11/05 01:17:56;;;;;;;;;;;;;;;8.33;94.16;101597.78;4979433;28;19932;-73
2022/11/05 01:20:21;;;;;;;;;;;;;;;8.31;94.35;101595.19;4987178;28;19945;-73
2022/11/05 01:22:46;;;;;;;;;;;;;;;8.32;94.36;101593.47;4980942;28;19909;-73
2022/11/05 01:25:12;;;;;;;;;;;;;;;8.30;94.15;101592.63;4994350;28;19969;-73
2022/11/05 01:27:37;;;;;;;;;;;;;;;8.28;94.45;101584.84;4979171;28;20000;-73
2022/11/05 01:30:03;;;;;;;;;;;;;;;8.27;94.35;101580.50;4981933;28;20275;-73
2022/11/05 01:32:29;;;;;;;;;;;;;;;8.26;94.15;101581.41;4999024;28;20016;-73
2022/11/05 01:34:54;;;;;;;;;;;;;;;8.24;94.30;101577.94;4998288;28;19914;-74
2022/11/05 01:37:20;;;;;;;;;;;;;;;8.23;94.37;101581.44;4962326;28;20141;-73
2022/11/05 01:39:45;;;;;;;;;;;;;;;8.22;94.30;101577.97;4978960;28;19970;-73
2022/11/05 01:42:13;;;;;;;;;;;;;;;8.21;94.29;101584.06;4996111;28;19914;-73
2022/11/05 01:44:51;;;;;;;;;;;;;;;8.20;94.32;101587.56;4998523;28;19913;-73
2022/11/05 01:47:24;;;;;;;;;;;;;;;8.17;94.33;101587.66;4981214;28;19957;-73
2022/11/05 01:49:50;;;;;;;;;;;;;;;8.17;94.26;101581.56;4978967;28;19914;-74
2022/11/05 01:52:15;;;;;;;;;;;;;;;8.15;94.40;101580.72;4994305;28;20226;-73
2022/11/05 01:54:41;;;;;;;;;;;;;;;8.14;94.58;101590.31;4994682;28;20339;-73
2022/11/05 01:57:09;;;;;;;;;;;;;;;8.12;94.39;101591.22;4991475;28;19964;-73
2022/11/05 01:59:39;;;;;;;;;;;;;;;8.11;94.44;101592.09;4995938;28;19921;-73
2022/11/05 02:02:06;;;;;;;;;;;;;;;8.08;94.66;101593.88;4987855;28;19925;-73
2022/11/05 02:04:39;;;;;;;;;;;;;;;8.08;94.65;101608.69;4979038;28;20095;-73
2022/11/05 02:07:06;;;;;;;;;;;;;;;8.05;93.00;101600.91;4988059;28;19917;-73
2022/11/05 02:09:38;;;;;;;;;;;;;;;8.04;93.43;101597.44;4972825;28;19910;-73
2022/11/05 02:12:03;;;;;;;;;;;;;;;8.03;93.03;101600.94;4986431;28;19910;-73
2022/11/05 02:14:28;;;;;;;;;;;;;;;8.03;92.57;101610.50;4998063;28;20113;-73
2022/11/05 02:16:54;;;;;;;;;;;;;;;8.02;92.25;101603.56;4974664;28;19921;-73
2022/11/05 02:19:38;;;;;;;;;;;;;;;8.01;91.62;101601.84;4984090;28;19914;-73
2022/11/05 02:22:04;;;;;;;;;;;;;;;8.02;92.22;101601.84;4997024;28;20260;-73
2022/11/05 02:24:32;;;;;;;;;;;;;;;8.03;92.69;101602.69;4998146;28;19921;-73
2022/11/05 02:26:57;;;;;;;;;;;;;;;8.03;92.84;101597.47;4997042;28;19981;-73
2022/11/05 02:29:42;;;;;;;;;;;;;;;8.04;93.50;101596.56;4998033;28;19913;-73
2022/11/05 02:32:10;;;;;;;;;;;;;;;8.06;93.99;101605.25;4994354;28;19953;-73
2022/11/05 02:34:47;;;;;;;;;;;;;;;8.08;94.55;101595.63;4978776;28;20141;-73
2022/11/05 02:37:12;;;;;;;;;;;;;;;8.10;95.04;101593.00;4965069;28;19929;-73
2022/11/05 02:39:42;;;;;;;;;;;;;;;8.11;95.11;101594.72;4978062;28;19910;-73
2022/11/05 02:42:20;;;;;;;;;;;;;;;8.11;95.52;101590.34;4978793;28;19920;-73
2022/11/05 02:44:48;;;;;;;;;;;;;;;8.13;95.78;101587.72;4978064;28;19914;-73
2022/11/05 02:47:27;;;;;;;;;;;;;;;8.13;95.79;101593.81;4979192;28;19949;-73
2022/11/05 02:49:52;;;;;;;;;;;;;;;8.14;96.27;101590.31;4997403;28;19913;-73
2022/11/05 02:52:25;;;;;;;;;;;;;;;8.15;96.25;101586.81;4996357;28;19985;-73
2022/11/05 02:54:56;;;;;;;;;;;;;;;8.14;96.49;101587.69;4977533;28;19940;-73
2022/11/05 02:57:22;;;;;;;;;;;;;;;8.15;96.77;101589.44;4978821;28;19925;-73
2022/11/05 02:59:47;;;;;;;;;;;;;;;8.14;96.69;101582.47;4978484;28;19913;-73
2022/11/05 03:02:12;;;;;;;;;;;;;;;8.16;96.87;101588.53;4964884;28;19989;-73
2022/11/05 03:04:38;;;;;;;;;;;;;;;8.16;97.17;101593.72;4946740;28;19929;-74
2022/11/05 03:07:15;;;;;;;;;;;;;;;8.16;96.88;101598.97;4961146;28;19918;-73
2022/11/05 03:09:44;;;;;;;;;;;;;;;8.16;96.61;101596.34;4993026;28;19931;-73
2022/11/05 03:12:09;;;;;;;;;;;;;;;8.18;96.70;101597.16;4997535;28;19917;-73
2022/11/05 03:14:34;;;;;;;;;;;;;;;8.18;96.49;101602.38;4984983;28;19992;-73
2022/11/05 03:17:11;;;;;;;;;;;;;;;8.19;96.73;101604.13;4958341;28;20257;-73
2022/11/05 03:19:57;;;;;;;;;;;;;;;8.19;96.36;101601.50;4970687;28;19928;-73
2022/11/05 03:22:24;;;;;;;;;;;;;;;8.19;96.47;101598.91;4978174;28;20105;-73
2022/11/05 03:24:56;;;;;;;;;;;;;;;8.22;97.02;101603.19;4987174;28;19944;-73
2022/11/05 03:27:25;;;;;;;;;;;;;;;8.23;97.25;101599.72;4997643;28;20392;-73
2022/11/05 03:29:53;;;;;;;;;;;;;;;8.24;97.63;101596.19;4985947;28;19949;-73
2022/11/05 03:32:19;;;;;;;;;;;;;;;8.25;97.74;101593.56;4978096;28;19914;-73
2022/11/05 03:34:55;;;;;;;;;;;;;;;8.26;98.00;101595.28;4990174;28;19918;-73
2022/11/05 03:37:21;;;;;;;;;;;;;;;8.29;98.01;101596.13;4989454;28;19922;-73
2022/11/05 03:39:49;;;;;;;;;;;;;;;8.28;98.41;101597.88;4989261;28;19981;-74
2022/11/05 03:42:16;;;;;;;;;;;;;;;8.30;98.49;101600.47;5000975;28;19906;-74
2022/11/05 03:44:44;;;;;;;;;;;;;;;8.30;98.52;101603.94;4995015;28;20117;-73
2022/11/05 03:47:12;;;;;;;;;;;;;;;8.29;98.44;101596.97;4981603;28;19957;-74
2022/11/05 03:49:40;;;;;;;;;;;;;;;8.31;98.48;101595.19;4985416;28;20209;-74
2022/11/05 03:52:08;;;;;;;;;;;;;;;8.31;98.11;101594.34;5001286;28;20125;-75
2022/11/05 03:54:33;;;;;;;;;;;;;;;8.32;98.19;101593.47;4997638;28;19913;-75
2022/11/05 03:57:05;;;;;;;;;;;;;;;8.33;98.30;101595.16;4963885;28;20217;-75
2022/11/05 03:59:38;;;;;;;;;;;;;;;8.33;98.64;101593.44;4981652;28;20035;-74
2022/11/05 04:02:04;;;;;;;;;;;;;;;8.34;98.74;101591.69;4981191;28;19914;-74
2022/11/05 04:04:29;;;;;;;;;;;;;;;8.34;98.66;101591.69;4981071;28;20261;-74
2022/11/05 04:15:06;;;;;;;;;;;;;;;8.34;99.27;101596.91;4963672;28;19961;-74
2022/11/05 04:17:32;;;;;;;;;;;;;;;8.34;99.35;101602.97;4963471;28;19917;-74
2022/11/05 04:25:25;;;;;;;;;;;;;;;8.33;99.33;101600.38;4973659;28;19924;-75
2022/11/05 04:27:50;;;;;;;;;;;;;;;8.33;99.40;101603.88;4999628;28;19941;-74
2022/11/05 04:30:20;;;;;;;;;;;;;;;8.32;99.51;101609.97;5000040;28;19912;-74
2022/11/05 04:32:55;;;;;;;;;;;;;;;8.32;99.34;101606.50;4998913;28;19929;-75
2022/11/05 04:35:21;;;;;;;;;;;;;;;8.31;99.38;101607.38;4999687;28;19976;-74
2022/11/05 04:37:46;;;;;;;;;;;;;;;8.29;99.28;101615.25;4999020;28;20280;-74
2022/11/05 04:40:11;;;;;;;;;;;;;;;8.29;99.26;101612.63;5000369;28;19913;-75
2022/11/05 04:42:37;;;;;;;;;;;;;;;8.27;99.43;101617.88;4999297;28;19972;-75
2022/11/05 04:45:02;;;;;;;;;;;;;;;8.28;99.29;101618.75;4999116;28;19918;-75
2022/11/05 04:47:27;;;;;;;;;;;;;;;8.26;99.19;101624.00;4999679;28;19920;-74
2022/11/05 04:49:52;;;;;;;;;;;;;;;8.25;99.11;101610.97;4999578;28;19953;-74
2022/11/05 04:52:18;;;;;;;;;;;;;;;8.25;99.08;101619.66;4999661;28;19912;-74
2022/11/05 04:54:43;;;;;;;;;;;;;;;8.25;98.72;101619.66;4999459;28;19920;-75
2022/11/05 04:57:08;;;;;;;;;;;;;;;8.25;98.79;101621.41;4999295;28;19913;-74
2022/11/05 04:59:33;;;;;;;;;;;;;;;8.24;98.91;101631.00;4999613;28;20192;-74
2022/11/05 05:01:59;;;;;;;;;;;;;;;8.24;98.62;101625.78;4998146;28;19918;-74
2022/11/05 05:04:24;;;;;;;;;;;;;;;8.25;98.37;101624.88;4966189;28;19980;-74
2022/11/05 05:06:49;;;;;;;;;;;;;;;8.26;98.50;101620.53;4998809;28;20220;-74
2022/11/05 05:09:15;;;;;;;;;;;;;;;8.25;98.52;101619.66;4999317;28;19925;-74
2022/11/05 05:11:40;;;;;;;;;;;;;;;8.25;98.66;101619.66;4998741;28;20114;-75
2022/11/05 05:14:05;;;;;;;;;;;;;;;8.26;98.93;101618.78;4999407;28;19922;-74
2022/11/05 05:16:31;;;;;;;;;;;;;;;8.26;98.92;101617.94;4999679;28;19918;-75
2022/11/05 05:18:56;;;;;;;;;;;;;;;8.27;98.86;101623.09;4998790;28;20121;-75
2022/11/05 05:21:40;;;;;;;;;;;;;;;8.27;99.14;101622.25;4999158;28;19918;-74
2022/11/05 05:24:07;;;;;;;;;;;;;;;8.26;99.21;101624.00;4992500;28;19972;-74
2022/11/05 05:26:33;;;;;;;;;;;;;;;8.26;98.90;101628.38;4999276;28;19913;-74
2022/11/05 05:28:58;;;;;;;;;;;;;;;8.27;99.18;101619.63;4997939;28;19913;-74
2022/11/05 05:31:24;;;;;;;;;;;;;;;8.26;99.16;101624.00;4981468;28;19968;-74
2022/11/05 05:33:52;;;;;;;;;;;;;;;8.26;99.16;101618.78;4980565;28;19969;-74
2022/11/05 05:36:17;;;;;;;;;;;;;;;8.27;98.99;101617.88;4999039;28;20234;-75
2022/11/05 05:38:42;;;;;;;;;;;;;;;8.26;99.23;101621.38;4999201;28;19960;-75
2022/11/05 05:41:08;;;;;;;;;;;;;;;8.27;99.02;101630.06;4997657;28;19914;-75
2022/11/05 05:43:33;;;;;;;;;;;;;;;8.26;99.21;101624.00;4998283;28;19928;-74
2022/11/05 05:46:02;;;;;;;;;;;;;;;8.27;99.17;101633.53;4980813;28;19909;-74
2022/11/05 05:48:27;;;;;;;;;;;;;;;8.27;99.30;101624.84;4998776;28;19920;-74
2022/11/05 05:50:53;;;;;;;;;;;;;;;8.27;99.32;101627.47;4998156;28;20203;-74
2022/11/05 05:53:18;;;;;;;;;;;;;;;8.27;99.23;101636.13;4997652;28;19955;-75
2022/11/05 05:55:43;;;;;;;;;;;;;;;8.27;99.46;101632.69;4980252;28;19956;-74
2022/11/05 05:58:08;;;;;;;;;;;;;;;8.27;99.63;101630.94;4980383;28;20229;-74
2022/11/05 06:00:34;;;;;;;;;;;;;;;8.27;99.42;101630.94;4981018;28;19917;-74
2022/11/05 06:02:59;;;;;;;;;;;;;;;8.27;99.63;101641.38;4997894;28;19910;-75
2022/11/05 06:05:24;;;;;;;;;;;;;;;8.27;99.51;101646.59;4980179;28;19921;-75
2022/11/05 06:07:56;;;;;;;;;;;;;;;8.27;99.67;101641.38;4997910;28;19916;-74
2022/11/05 06:10:22;;;;;;;;;;;;;;;8.29;99.75;101645.72;4980920;28;19918;-74
2022/11/05 06:12:47;;;;;;;;;;;;;;;8.28;99.62;101642.25;5012928;28;19917;-75
2022/11/05 06:15:12;;;;;;;;;;;;;;;8.27;99.41;101646.59;4998189;28;19981;-74
2022/11/05 06:17:37;;;;;;;;;;;;;;;8.28;99.11;101644.84;4997609;28;20161;-74
2022/11/05 06:20:03;;;;;;;;;;;;;;;8.27;99.37;101646.59;5002200;28;19918;-74
2022/11/05 06:22:28;;;;;;;;;;;;;;;8.30;99.46;101647.44;4965239;28;20185;-74
2022/11/05 06:24:54;;;;;;;;;;;;;;;8.29;99.54;101651.78;4997266;28;20061;-75
2022/11/05 06:27:19;;;;;;;;;;;;;;;8.30;99.77;101652.66;4997895;28;20197;-74
2022/11/05 06:29:44;;;;;;;;;;;;;;;8.30;99.64;101652.66;4980604;28;20236;-74
2022/11/05 06:32:10;;;;;;;;;;;;;;;8.30;99.85;101658.72;4998086;28;19913;-74
2022/11/05 06:34:35;;;;;;;;;;;;;;;8.31;99.92;101659.59;4997535;28;19918;-74
2022/11/05 06:37:01;;;;;;;;;;;;;;;8.31;100.00;101651.75;4997318;28;20208;-74
2022/11/05 06:39:26;;;;;;;;;;;;;;;8.30;100.00;101661.34;4997781;28;19951;-75
2022/11/05 06:41:51;;;;;;;;;;;;;;;8.30;100.00;101658.72;4979973;28;19917;-74
2022/11/05 06:44:17;;;;;;;;;;;;;;;8.30;100.00;101656.13;4996689;28;19928;-74
2022/11/05 06:46:42;;;;;;;;;;;;;;;8.30;100.00;101657.88;4979985;28;20191;-75
2022/11/05 06:49:07;;;;;;;;;;;;;;;8.30;100.00;101656.13;4980277;28;19921;-75
2022/11/05 06:51:32;;;;;;;;;;;;;;;8.30;100.00;101661.34;4979295;28;20256;-75
2022/11/05 06:53:58;;;;;;;;;;;;;;;8.31;100.00;101662.19;4995431;28;19998;-74
2022/11/05 06:56:23;;;;;;;;;;;;;;;8.31;100.00;101660.44;4995643;28;19918;-75
2022/11/05 06:58:48;;;;;;;;;;;;;;;8.30;100.00;101663.94;4996978;28;19922;-74
2022/11/05 07:01:13;;;;;;;;;;;;;;;8.31;100.00;101663.03;4995624;28;19983;-74
2022/11/05 07:03:39;;;;;;;;;;;;;;;8.30;100.00;101663.94;4995532;28;19905;-74
2022/11/05 07:06:05;;;;;;;;;;;;;;;8.30;100.00;101671.78;4994660;28;19952;-74
2022/11/05 07:08:31;;;;;;;;;;;;;;;8.31;100.00;101670.88;4998368;28;20109;-75
2022/11/05 07:10:57;;;;;;;;;;;;;;;8.31;100.00;101675.25;4999740;28;20124;-74
2022/11/05 07:13:22;;;;;;;;;;;;;;;8.31;100.00;101672.63;5001127;28;19973;-74
2022/11/05 07:15:48;;;;;;;;;;;;;;;8.32;100.00;101676.97;5003464;28;19928;-75
2022/11/05 07:18:13;;;;;;;;;;;;;;;8.31;100.00;101670.03;5000552;28;19921;-75
2022/11/05 07:20:39;;;;;;;;;;;;;;;8.31;100.00;101672.63;4983522;28;19950;-75
2022/11/05 07:23:09;;;;;;;;;;;;;;;8.32;100.00;101676.97;5000119;28;19977;-74
2022/11/05 07:25:34;;;;;;;;;;;;;;;8.32;100.00;101666.53;4971411;28;20173;-74
2022/11/05 07:28:00;;;;;;;;;;;;;;;8.32;100.00;101675.22;4981052;28;20066;-74
2022/11/05 07:30:25;;;;;;;;;;;;;;;8.33;100.00;101681.28;4982023;28;19945;-75
2022/11/05 07:32:51;;;;;;;;;;;;;;;8.33;100.00;101674.34;4980466;28;20113;-74
2022/11/05 07:35:16;;;;;;;;;;;;;;;8.33;100.00;101679.56;4981144;28;19917;-73
2022/11/05 07:37:46;;;;;;;;;;;;;;;8.34;100.00;101685.63;4981147;28;19926;-75
2022/11/05 07:40:12;;;;;;;;;;;;;;;8.34;100.00;101675.19;4981544;28;19913;-74
2022/11/05 07:42:44;;;;;;;;;;;;;;;8.34;100.00;101680.41;4980967;28;20224;-74
2022/11/05 07:45:10;;;;;;;;;;;;;;;8.35;100.00;101675.19;4981980;28;19925;-74
2022/11/05 07:47:36;;;;;;;;;;;;;;;8.36;100.00;101687.31;4963800;28;20149;-74
2022/11/05 07:50:01;;;;;;;;;;;;;;;8.37;100.00;101680.38;4980452;28;19922;-74
2022/11/05 07:52:27;;;;;;;;;;;;;;;8.38;100.00;101682.94;4981181;28;20418;-74
2022/11/05 07:54:52;;;;;;;;;;;;;;;8.38;100.00;101682.94;4980946;28;19918;-74
2022/11/05 07:57:17;;;;;;;;;;;;;;;8.39;100.00;101689.03;4963800;28;20175;-74
2022/11/05 07:59:42;;;;;;;;;;;;;;;8.40;100.00;101680.28;4947279;28;19953;-74
2022/11/05 08:02:09;;;;;;;;;;;;;;;8.41;100.00;101682.88;4979764;28;20018;-74
2022/11/05 08:04:34;;;;;;;;;;;;;;;8.40;100.00;101681.19;4963838;28;20124;-74
2022/11/05 08:06:59;;;;;;;;;;;;;;;8.42;100.00;101681.16;4980546;28;19918;-74
2022/11/05 08:09:24;;;;;;;;;;;;;;;8.43;100.00;101683.75;4981033;28;20126;-75
2022/11/05 08:11:50;;;;;;;;;;;;;;;8.44;100.00;101682.00;4963179;28;20202;-74
2022/11/05 08:14:15;;;;;;;;;;;;;;;8.46;100.00;101682.84;4981136;28;20238;-74
2022/11/05 08:16:40;;;;;;;;;;;;;;;8.47;100.00;101686.31;4963218;28;20142;-75
2022/11/05 08:19:06;;;;;;;;;;;;;;;8.48;100.00;101688.91;4980023;28;20286;-75
2022/11/05 08:21:31;;;;;;;;;;;;;;;8.49;100.00;101687.13;4980613;28;20182;-74
2022/11/05 08:23:56;;;;;;;;;;;;;;;8.50;100.00;101683.66;4978898;28;20121;-75
2022/11/05 08:26:21;;;;;;;;;;;;;;;8.51;100.00;101682.75;5014340;28;20001;-75
2022/11/05 08:28:46;;;;;;;;;;;;;;;8.52;100.00;101685.34;4973641;28;19933;-75
2022/11/05 08:31:14;;;;;;;;;;;;;;;8.53;100.00;101687.06;4980864;28;20172;-75
2022/11/05 08:33:39;;;;;;;;;;;;;;;8.54;100.00;101680.94;4986081;28;20091;-75
2022/11/05 08:36:04;;;;;;;;;;;;;;;8.55;100.00;101690.50;4980244;28;19917;-75
2022/11/05 08:38:30;;;;;;;;;;;;;;;8.57;100.00;101675.66;4993800;28;20121;-74
2022/11/05 08:40:56;;;;;;;;;;;;;;;8.58;100.00;101679.13;4988308;28;20338;-75
2022/11/05 08:43:22;;;;;;;;;;;;;;;8.58;100.00;101685.22;4988436;28;19918;-74
2022/11/05 08:45:47;;;;;;;;;;;;;;;8.59;100.00;101686.94;4979427;28;20197;-74
2022/11/05 08:48:14;;;;;;;;;;;;;;;8.60;100.00;101691.28;4979635;28;20299;-74
2022/11/05 08:50:40;;;;;;;;;;;;;;;8.62;100.00;101696.44;4967187;28;19941;-75
2022/11/05 08:53:05;;;;;;;;;;;;;;;8.63;100.00;101699.03;4981760;28;19940;-75
2022/11/05 08:55:30;;;;;;;;;;;;;;;8.66;100.00;101695.53;4982539;28;19918;-75
2022/11/05 08:57:56;;;;;;;;;;;;;;;8.67;100.00;101693.78;4986557;28;20084;-75
2022/11/05 09:00:22;;;;;;;;;;;;;;;8.68;100.00;101695.47;4964532;28;19922;-75
2022/11/05 09:02:47;;;;;;;;;;;;;;;8.69;100.00;101687.63;4992797;28;19920;-74
2022/11/05 09:05:12;;;;;;;;;;;;;;;8.70;100.00;101691.13;4982243;28;20217;-74
2022/11/05 09:07:38;;;;;;;;;;;;;;;8.72;100.00;101694.56;4972204;28;20328;-75
2022/11/05 09:10:03;;;;;;;;;;;;;;;8.73;100.00;101698.88;4965193;28;20169;-75
2022/11/05 09:12:29;;;;;;;;;;;;;;;8.74;100.00;101698.84;4969923;28;19953;-74
2022/11/05 09:14:54;;;;;;;;;;;;;;;8.76;100.00;101693.59;4986244;28;19957;-75
2022/11/05 09:17:20;;;;;;;;;;;;;;;8.77;100.00;101701.41;4994609;28;19933;-74
2022/11/05 09:19:46;;;;;;;;;;;;;;;8.79;100.00;101698.75;4985212;28;19988;-75
2022/11/05 09:22:11;;;;;;;;;;;;;;;8.79;100.00;101699.63;4978927;28;20209;-74
2022/11/05 09:24:40;;;;;;;;;;;;;;;8.82;100.00;101699.56;4971101;28;20217;-74
2022/11/05 09:27:10;;;;;;;;;;;;;;;8.84;100.00;101702.13;5005089;28;19924;-75
2022/11/05 09:29:35;;;;;;;;;;;;;;;8.85;100.00;101703.84;4997971;28;19918;-75
2022/11/05 09:32:01;;;;;;;;;;;;;;;8.88;100.00;101711.66;4996790;28;20238;-75
2022/11/05 09:34:26;;;;;;;;;;;;;;;8.89;100.00;101707.28;4997256;28;19918;-74
2022/11/05 09:36:51;;;;;;;;;;;;;;;8.89;100.00;101710.72;4982889;28;20240;-74
2022/11/05 09:39:17;;;;;;;;;;;;;;;8.90;100.00;101712.47;5003762;28;19921;-75
2022/11/05 09:41:43;;;;;;;;;;;;;;;8.92;100.00;101704.59;4990430;28;20404;-75
2022/11/05 09:44:14;;;;;;;;;;;;;;;8.94;100.00;101713.28;5017948;28;19944;-74
2022/11/05 09:46:45;;;;;;;;;;;;;;;8.95;100.00;101709.75;5011452;28;19936;-74
2022/11/05 09:49:23;;;;;;;;;;;;;;;8.95;100.00;101708.03;5018097;28;19913;-74
2022/11/05 09:51:48;;;;;;;;;;;;;;;8.97;100.00;101713.22;4997848;28;19940;-74
2022/11/05 09:54:14;;;;;;;;;;;;;;;8.99;100.00;101707.06;5023746;28;19988;-74
2022/11/05 09:56:40;;;;;;;;;;;;;;;9.00;100.00;101706.19;4990741;28;19996;-74
2022/11/05 09:59:11;;;;;;;;;;;;;;;9.03;100.00;101702.63;5017966;28;19974;-75
2022/11/05 10:01:37;;;;;;;;;;;;;;;9.03;100.00;101710.47;5000652;28;20232;-74
2022/11/05 10:04:08;;;;;;;;;;;;;;;9.04;100.00;101704.38;5002504;28;19925;-74
2022/11/05 10:06:35;;;;;;;;;;;;;;;9.05;100.00;101706.06;4989460;28;19918;-75
2022/11/05 10:09:04;;;;;;;;;;;;;;;9.07;100.00;101704.28;5006888;28;19948;-75
2022/11/05 10:11:33;;;;;;;;;;;;;;;9.09;100.00;101693.81;5004363;28;19910;-74
2022/11/05 10:14:00;;;;;;;;;;;;;;;9.09;100.00;101699.03;4993320;28;20484;-74
2022/11/05 10:16:28;;;;;;;;;;;;;;;9.10;100.00;101695.53;4997859;28;19916;-74
2022/11/05 10:18:59;;;;;;;;;;;;;;;9.11;100.00;101697.25;4980967;28;19943;-75
2022/11/05 10:21:25;;;;;;;;;;;;;;;9.13;100.00;101704.19;5008946;28;19980;-74
2022/11/05 10:23:50;;;;;;;;;;;;;;;9.14;100.00;101705.88;5008426;28;19945;-74
2022/11/05 10:26:25;;;;;;;;;;;;;;;9.15;100.00;101701.50;4992636;28;19914;-75
2022/11/05 10:28:51;;;;;;;;;;;;;;;9.17;100.00;101704.97;4988120;28;19913;-74
2022/11/05 10:31:19;;;;;;;;;;;;;;;9.17;100.00;101711.06;4980796;28;20382;-75
2022/11/05 10:33:54;;;;;;;;;;;;;;;9.19;100.00;101708.41;4979378;28;20112;-74
2022/11/05 10:36:22;;;;;;;;;;;;;;;9.21;100.00;101697.00;4990719;28;19909;-75
2022/11/05 10:38:48;;;;;;;;;;;;;;;9.22;100.00;101696.13;4996710;28;20356;-75
2022/11/05 10:41:13;;;;;;;;;;;;;;;9.25;100.00;101699.56;4994271;28;19917;-74
2022/11/05 10:43:44;;;;;;;;;;;;;;;9.26;100.00;101703.88;4991257;28;20118;-75
2022/11/05 10:46:09;;;;;;;;;;;;;;;9.29;100.00;101706.44;4994844;28;19913;-74
2022/11/05 10:48:38;;;;;;;;;;;;;;;9.29;100.00;101709.06;4983965;28;19918;-74
2022/11/05 10:51:05;;;;;;;;;;;;;;;9.31;100.00;101705.50;4990444;28;19909;-74
2022/11/05 10:53:32;;;;;;;;;;;;;;;9.32;100.00;101703.78;4973452;28;20221;-74
2022/11/05 10:55:58;;;;;;;;;;;;;;;9.34;100.00;101699.38;4984694;28;19910;-74
2022/11/05 10:58:31;;;;;;;;;;;;;;;9.34;100.00;101708.06;4975590;28;20279;-75
2022/11/05 11:00:56;;;;;;;;;;;;;;;9.36;100.00;101703.66;4993371;28;20183;-74
2022/11/05 11:03:38;;;;;;;;;;;;;;;9.37;100.00;101710.63;4979809;28;20228;-74
2022/11/05 11:06:18;;;;;;;;;;;;;;;9.38;100.00;101707.09;4983382;28;19914;-74
2022/11/05 11:08:45;;;;;;;;;;;;;;;9.40;100.00;101712.28;4984028;28;20200;-74
2022/11/05 11:11:12;;;;;;;;;;;;;;;9.40;100.00;101713.19;4981729;28;19937;-74
2022/11/05 11:13:49;;;;;;;;;;;;;;;9.41;100.00;101704.44;4981867;28;19906;-74
2022/11/05 11:16:18;;;;;;;;;;;;;;;9.43;100.00;101701.78;4980742;28;20250;-73
2022/11/05 11:18:44;;;;;;;;;;;;;;;9.43;100.00;101707.00;4978540;28;20276;-74
2022/11/05 11:21:14;;;;;;;;;;;;;;;9.43;99.80;101712.25;4978488;28;19925;-74
2022/11/05 11:23:40;;;;;;;;;;;;;;;9.46;100.00;101713.91;4981365;28;20289;-74
2022/11/05 11:26:06;;;;;;;;;;;;;;;9.46;100.00;101699.09;4995350;28;19921;-74
2022/11/05 11:28:39;;;;;;;;;;;;;;;9.47;100.00;101708.66;4988729;28;20086;-74
2022/11/05 11:31:13;;;;;;;;;;;;;;;9.49;100.00;101695.56;4994216;28;19918;-74
2022/11/05 11:33:39;;;;;;;;;;;;;;;9.51;100.00;101701.59;4973837;28;19909;-74
2022/11/05 11:36:05;;;;;;;;;;;;;;;9.52;99.85;101701.56;4996417;28;19912;-74
2022/11/05 11:38:32;;;;;;;;;;;;;;;9.54;99.89;101705.00;4988409;28;19926;-72
2022/11/05 11:41:06;;;;;;;;;;;;;;;9.56;100.00;101699.75;4978632;28;19917;-74
2022/11/05 11:43:34;;;;;;;;;;;;;;;9.57;99.80;101702.34;4968705;28;19909;-73
2022/11/05 11:46:00;;;;;;;;;;;;;;;9.59;100.00;101702.31;4971963;28;19909;-74
2022/11/05 11:48:29;;;;;;;;;;;;;;;9.59;99.63;101705.78;4992217;28;19922;-74
2022/11/05 11:50:55;;;;;;;;;;;;;;;9.60;99.14;101707.50;4987233;28;19925;-74
2022/11/05 11:53:20;;;;;;;;;;;;;;;9.61;98.87;101708.34;4986367;28;20148;-74
2022/11/05 11:55:55;;;;;;;;;;;;;;;9.61;98.62;101709.22;4982862;28;19914;-74
2022/11/05 11:58:22;;;;;;;;;;;;;;;9.63;98.56;101709.19;4983957;28;19924;-74
2022/11/05 12:01:01;;;;;;;;;;;;;;;9.64;98.31;101705.69;4993059;28;19972;-74
2022/11/05 12:03:33;;;;;;;;;;;;;;;9.64;98.24;101700.44;4986119;28;20269;-74
2022/11/05 12:06:08;;;;;;;;;;;;;;;9.67;98.82;101700.34;4996969;28;19913;-74
2022/11/05 12:08:52;;;;;;;;;;;;;;;9.69;98.71;101690.72;4999717;28;20134;-74
2022/11/05 12:11:17;;;;;;;;;;;;;;;9.70;98.99;101691.59;4996589;28;19928;-74
2022/11/05 12:13:42;;;;;;;;;;;;;;;9.72;99.18;101692.41;4981581;28;19906;-74
2022/11/05 12:16:23;;;;;;;;;;;;;;;9.74;99.52;101686.25;4991143;28;19981;-74
2022/11/05 12:18:51;;;;;;;;;;;;;;;9.74;99.50;101681.00;4999141;28;20297;-74
2022/11/05 12:21:32;;;;;;;;;;;;;;;9.75;99.53;101682.75;4989279;28;19923;-75
2022/11/05 12:24:19;;;;;;;;;;;;;;;9.77;99.46;101675.72;4983743;28;19920;-74
2022/11/05 12:27:10;;;;;;;;;;;;;;;9.80;99.61;101669.53;4996301;28;19921;-74
2022/11/05 12:29:41;;;;;;;;;;;;;;;9.82;99.71;101680.81;5016391;28;19922;-75
2022/11/05 12:32:27;;;;;;;;;;;;;;;9.83;99.56;101668.63;5000626;28;19945;-74
2022/11/05 12:34:55;;;;;;;;;;;;;;;9.84;99.33;101670.31;5013205;28;19924;-74
2022/11/05 12:37:23;;;;;;;;;;;;;;;9.84;99.50;101670.31;4994149;28;19916;-76
2022/11/05 12:39:56;;;;;;;;;;;;;;;9.86;99.37;101668.53;5005825;28;19921;-74
2022/11/05 12:42:21;;;;;;;;;;;;;;;9.86;99.82;101655.44;5008231;28;19952;-74
2022/11/05 12:44:54;;;;;;;;;;;;;;;9.88;99.74;101666.75;4997454;28;19917;-74
2022/11/05 12:47:42;;;;;;;;;;;;;;;9.89;99.59;101666.69;4992384;28;20212;-74
2022/11/05 12:50:26;;;;;;;;;;;;;;;9.89;99.38;101656.22;5018724;28;19920;-74
2022/11/05 12:52:54;;;;;;;;;;;;;;;9.90;99.02;101654.50;5004018;28;19948;-74
2022/11/05 12:55:22;;;;;;;;;;;;;;;9.90;99.00;101655.34;4983834;28;19949;-74
2022/11/05 12:57:50;;;;;;;;;;;;;;;9.92;99.41;101643.09;5005657;28;19921;-74
2022/11/05 13:00:20;;;;;;;;;;;;;;;9.93;99.27;101636.09;5019230;28;19917;-74
2022/11/05 13:02:55;;;;;;;;;;;;;;;9.92;99.01;101640.47;5005357;28;20216;-74
2022/11/05 13:05:38;;;;;;;;;;;;;;;9.93;98.99;101634.34;4996755;28;20140;-74
2022/11/05 13:08:11;;;;;;;;;;;;;;;9.95;99.03;101632.53;5013543;28;20136;-74
2022/11/05 13:10:43;;;;;;;;;;;;;;;9.96;99.31;101625.53;4995463;28;19949;-76
2022/11/05 13:13:08;;;;;;;;;;;;;;;9.96;99.00;101620.31;5014245;28;19952;-74
2022/11/05 13:15:37;;;;;;;;;;;;;;;9.96;98.73;101617.69;5002665;28;19918;-74
2022/11/05 13:18:11;;;;;;;;;;;;;;;9.96;98.44;101612.47;5007336;28;20237;-74
2022/11/05 13:20:38;;;;;;;;;;;;;;;9.97;98.63;101611.56;5000728;28;20211;-74
2022/11/05 13:23:12;;;;;;;;;;;;;;;9.97;98.79;101609.81;5010066;28;19972;-74